Aviation Digital Data Service (ADDS)

Output produced by METARs form (0012 UTC 23 February 2017)
found at http://aviationweather.gov/adds/metars/
 
KSBY 222339Z 2300/2324 20006KT P6SM BKN080 
     FM230200 20005KT 5SM BR OVC050 
     FM230800 20005KT 5SM BR OVC035 
     FM231400 21008KT P6SM BKN035 
     FM231900 21011KT P6SM SCT060